vuelo de bajo nivel

 

 

                                        

 

 

                                     VUELOS DE BAJO NIVEL DESDE SUPERFICIE HASTA 24,000 PIES.

 

  VALIDO DESDE 261200Z ...………………………HASTA 270000Z SALIDA  Y  PUESTA  DEL  SOL  06:52/18:01 

 

SANTO DOMINGO FIR...PORT-AU-PRINCE FIR SCT025 SCT-BKN060 TOP 120. ISOL TO WDLY SCT SHRA.OTLK...VFR SHRA.

.

 

 

5,000 FT.

10,000 FT.

18,000 FT.

24,000 FT.

MDSD

1805KT+17ºC

1515KT+09ºC

  0620KT-05ºC

    0325KT-17ºC

MTPP

1805KT+17ºC

1515KT+09ºC

 0620KT-05ºC

    0325KT-17ºC

TJSJ

0120KT+20ºC

3610KT+08ºC

 3625KT-05ºC

    3620KT-16ºC

 

FTDR31 MDSD 261000Z
TAF 

TAF MDPP 261000Z 2612/2712 00000KT 9999 SCT018 PROB30 2612/2618 8000 -SH BKN017
BECMG 2615/2617 06015KT=

TAF MDST 261000Z 2612/2712 00000KT 9999 SCT016 BECMG 2613/2615 10015KT SCT018=

TAF MDPC 261000Z 2612/2712 06012KT 9999 SCT020=

TAF MDBH 261000Z 2612/2712 00000KT 9999 FEW016CB FEW018 BECMG 2615/2617 13010KT=

TAF MDJB 261000Z 2612/2712 00000KT 9999 BKN016 PROB30 2612/2618 8000 -RA FEW014CB SCT016 BKN070 BECMG 2614/2616 18008KT=
TAF MDSD 261000Z 2612/2712 04004KT 8000 -RA BKN014 PROB30 2612/2618 7000 -RA FEW014CB BKN016 BKN070 BECMG 2616/2618 14008KT=

TAF MDLR 261000Z 2612/2712 00000KT 9999 BKN016 SCT070 PROB30 2612/2618 7000 -TSRA FEW014CB BKN016 BECMG 2613/2615 08008KT=
TAF MDCY 261000Z 2612/2712 00000KT 9999 SCT016 PROB30 2612/2618 7000 -RA FEW014CB BKN016 BKN070 BECMG 2614/2616 09006KT=  

 

KMIA 260858Z 2609/2712 12010KT P6SM FEW035 SCT070 FM261400 09009KT P6SM SCT035 SCT070 FM270000 VRB04KT P6SM FEW035 SCT070=

KJFK 260831Z 2609/2712 19010KT 5SM -RA BR FEW015 OVC025 FM261300 19012KT 2SM SHRA BR BKN007 OVC012 FM261800 21010KT 5SM -SHRA BR BKN015 OVC025 FM262100 23006KT P6SM VCSH SCT015 BKN025 OVC070 FM262300 28008KT P6SM SCT070 SCT250 FM270800 30006KT P6SM SCT250=

TJS 260527Z 2606/2706 VRB03KT P6SM VCSH SCT025 SCT060 FM261400 05012KT P6SM FEW030 FM262200 08005KT P6SM VCSH FEW025 SCT050=

MUHA 260500Z 2606/2706 VRB03KT 9000 FEW030 BECMG 2614/2616 10010KT SCT030 BECMG 2703/2705 VRB03KT FEW030=

TAF MUGM 2607/2707 34010KT 9999 FEW030 SCT070 QNH2993INS BECMG 2616/2618 10015G22KT 9999 FEW030 SCT060 QNH2985INS BECMG 2622/2700 35009KT 9999 FEW030 SCT060 QNH2986INS T21/2610Z T31/2619Z FN00205=

TAF TNCC 260515Z 2606/2706 08008KT 9999 SCT018 TEMPO 2606/2706 7000 SHRA BKN014=

TAF MKJP 260515Z 2606/2706 34005KT 9999 FEW022 BECMG 2613/2615 18010KT SCT034 BECMG 2701/2703 34005KT=

 

PREPARADO POR: CAROLINA PAULINO 26 de NOVIEMBRE del 2020=